createdAt,value
2022-09-14T00:01:31.483Z,97304.03
2022-09-14T00:04:02.482Z,97302.06
2022-09-14T00:06:30.653Z,97296.78
2022-09-14T00:09:00.944Z,97295.53
2022-09-14T00:11:31.389Z,97286.09
2022-09-14T00:14:00.211Z,97284.56
2022-09-14T00:16:31.805Z,97292.53
2022-09-14T00:19:05.525Z,97289.25
2022-09-14T00:21:35.981Z,97280.59
2022-09-14T00:24:04.188Z,97277.31
2022-09-14T00:26:31.306Z,97275.63
2022-09-14T00:29:04.198Z,97281.72
2022-09-14T00:31:34.696Z,97282.00
2022-09-14T00:34:03.088Z,97274.84
2022-09-14T00:36:31.474Z,97269.81
2022-09-14T00:39:00.666Z,97261.78
2022-09-14T00:41:32.626Z,97245.72
2022-09-14T00:44:08.201Z,97241.78
2022-09-14T00:46:45.006Z,97226.13
2022-09-14T00:49:40.846Z,97213.63
2022-09-14T00:52:18.217Z,97217.75
2022-09-14T00:55:10.909Z,97220.31
2022-09-14T00:57:44.677Z,97221.00
2022-09-14T01:00:16.978Z,97205.78
2022-09-14T01:02:44.340Z,97210.75
2022-09-14T01:05:12.735Z,97207.78
2022-09-14T01:07:56.443Z,97205.91
2022-09-14T01:10:34.592Z,97204.00
2022-09-14T01:13:24.121Z,97202.81
2022-09-14T01:16:15.426Z,97194.59
2022-09-14T01:18:51.122Z,97182.25
2022-09-14T01:21:35.034Z,97185.19
2022-09-14T01:25:06.523Z,97189.91
2022-09-14T01:27:41.696Z,97177.69
2022-09-14T01:30:22.606Z,97168.03
2022-09-14T01:33:10.910Z,97161.69
2022-09-14T01:35:52.022Z,97168.31
2022-09-14T01:38:38.097Z,97165.63
2022-09-14T01:41:10.308Z,97176.72
2022-09-14T01:43:42.896Z,97225.28
2022-09-14T01:46:29.818Z,97322.63
2022-09-14T01:49:10.174Z,97346.28
2022-09-14T01:51:47.176Z,97424.19
2022-09-14T01:54:24.023Z,97376.66
2022-09-14T01:57:25.558Z,97334.53
2022-09-14T01:59:57.429Z,97344.88
2022-09-14T02:02:50.087Z,97367.31
2022-09-14T02:05:27.914Z,97328.66
2022-09-14T02:07:56.092Z,97325.56
2022-09-14T02:10:24.457Z,97326.81
2022-09-14T02:12:53.621Z,97330.69
2022-09-14T02:15:21.200Z,97336.53
2022-09-14T02:17:49.135Z,97341.47
2022-09-14T02:20:28.919Z,97343.34
2022-09-14T02:22:56.102Z,97332.31
2022-09-14T02:25:23.111Z,97318.75
2022-09-14T02:27:50.369Z,97321.44
2022-09-14T02:30:17.795Z,97324.47
2022-09-14T02:33:12.233Z,97320.91
2022-09-14T02:35:54.251Z,97319.50
2022-09-14T02:38:58.753Z,97317.91
2022-09-14T02:42:04.724Z,97302.88
2022-09-14T02:44:43.553Z,97274.25
2022-09-14T02:47:39.061Z,97280.88
2022-09-14T02:50:25.549Z,97302.78
2022-09-14T02:53:13.079Z,97282.53
2022-09-14T02:55:46.818Z,97292.56
2022-09-14T02:58:14.808Z,97286.25
2022-09-14T03:00:45.775Z,97285.84
2022-09-14T03:03:15.690Z,97290.34
2022-09-14T03:05:43.205Z,97294.06
2022-09-14T03:08:11.638Z,97285.88
2022-09-14T03:10:42.190Z,97282.03
2022-09-14T03:13:09.164Z,97262.00
2022-09-14T03:15:36.118Z,97255.91
2022-09-14T03:18:03.003Z,97259.69
2022-09-14T03:20:33.209Z,97244.97
2022-09-14T03:23:01.132Z,97245.91
2022-09-14T03:25:28.699Z,97251.72
2022-09-14T03:28:00.078Z,97245.38
2022-09-14T03:30:27.903Z,97242.91
2022-09-14T03:32:55.079Z,97234.84
2022-09-14T03:35:22.091Z,97235.47
2022-09-14T03:37:49.071Z,97250.25
2022-09-14T03:40:21.698Z,97243.81
2022-09-14T03:42:50.721Z,97231.78
2022-09-14T03:45:19.362Z,97237.63
2022-09-14T03:47:47.192Z,97240.75
2022-09-14T03:50:15.477Z,97230.75
2022-09-14T03:52:42.504Z,97242.56
2022-09-14T03:55:10.749Z,97220.00
2022-09-14T03:57:37.655Z,97226.91
2022-09-14T04:00:06.424Z,97217.34
2022-09-14T04:02:39.078Z,97219.28
2022-09-14T04:05:07.042Z,97206.78
2022-09-14T04:07:34.095Z,97201.75
2022-09-14T04:10:00.964Z,97203.47
2022-09-14T04:12:27.922Z,97212.47
2022-09-14T04:14:54.818Z,97203.53
2022-09-14T04:17:25.178Z,97201.69
2022-09-14T04:19:52.138Z,97192.66
2022-09-14T04:22:19.044Z,97189.19
2022-09-14T04:24:45.961Z,97182.72
2022-09-14T04:27:12.853Z,97188.69
2022-09-14T04:29:39.919Z,97172.81
2022-09-14T04:32:07.140Z,97168.56
2022-09-14T04:34:34.019Z,97166.94
2022-09-14T04:37:01.096Z,97164.31
2022-09-14T04:39:28.494Z,97164.00
2022-09-14T04:41:55.341Z,97156.69
2022-09-14T04:44:22.223Z,97159.25
2022-09-14T04:46:49.138Z,97166.31
2022-09-14T04:49:18.626Z,97158.41
2022-09-14T04:51:45.848Z,97165.28
2022-09-14T04:54:15.911Z,97175.84
2022-09-14T04:56:43.526Z,97180.31
2022-09-14T04:59:10.826Z,97162.69
2022-09-14T05:01:43.873Z,97165.50
2022-09-14T05:04:12.352Z,97166.25
2022-09-14T05:06:41.375Z,97193.31
2022-09-14T05:09:14.067Z,97169.78
2022-09-14T05:11:42.082Z,97170.50
2022-09-14T05:14:13.059Z,97163.41
2022-09-14T05:16:41.823Z,97169.44
2022-09-14T05:19:14.387Z,97180.56
2022-09-14T05:21:41.718Z,97191.91
2022-09-14T05:24:14.742Z,97206.09
2022-09-14T05:26:43.441Z,97240.19
2022-09-14T05:29:14.090Z,97244.09
2022-09-14T05:31:41.127Z,97229.28
2022-09-14T05:34:10.205Z,97225.28
2022-09-14T05:36:38.365Z,97241.78
2022-09-14T05:39:06.981Z,97237.31
2022-09-14T05:41:33.936Z,97232.94
2022-09-14T05:44:00.823Z,97221.19
2022-09-14T05:46:27.808Z,97225.25
2022-09-14T05:48:54.742Z,97222.19
2022-09-14T05:51:24.819Z,97215.22
2022-09-14T05:53:54.471Z,97222.66
2022-09-14T05:56:23.415Z,97218.59
2022-09-14T05:58:51.016Z,97222.69
2022-09-14T06:01:25.164Z,97216.66
2022-09-14T06:03:58.019Z,97201.94
2022-09-14T06:06:25.012Z,97193.34
2022-09-14T06:08:55.002Z,97201.81
2022-09-14T06:11:25.342Z,97193.47
2022-09-14T06:13:54.239Z,97190.81
2022-09-14T06:16:23.592Z,97173.72
2022-09-14T06:18:51.059Z,97177.38
2022-09-14T06:21:20.204Z,97168.97
2022-09-14T06:23:48.943Z,97192.75
2022-09-14T06:26:16.830Z,97191.91
2022-09-14T06:28:44.221Z,97184.16
2022-09-14T06:31:15.425Z,97192.91
2022-09-14T06:33:47.268Z,97186.59
2022-09-14T06:36:20.675Z,97197.53
2022-09-14T06:38:51.631Z,97185.59
2022-09-14T06:41:22.730Z,97199.78
2022-09-14T06:43:50.478Z,97190.22
2022-09-14T06:46:21.626Z,97187.09
2022-09-14T06:48:58.782Z,97218.56
2022-09-14T06:51:36.271Z,97184.84
2022-09-14T06:54:04.058Z,97192.72
2022-09-14T06:56:37.796Z,97185.44
2022-09-14T06:59:06.975Z,97209.72
2022-09-14T07:01:34.606Z,97173.72
2022-09-14T07:04:01.790Z,97181.75
2022-09-14T07:06:33.277Z,97193.56
2022-09-14T07:09:04.902Z,97195.81
2022-09-14T07:11:32.294Z,97211.66
2022-09-14T07:13:59.495Z,97197.94
2022-09-14T07:16:28.477Z,97195.81
2022-09-14T07:18:57.179Z,97180.47
2022-09-14T07:21:24.639Z,97194.84
2022-09-14T07:23:52.293Z,97211.13
2022-09-14T07:26:32.372Z,97232.38
2022-09-14T07:29:03.820Z,97226.00
2022-09-14T07:31:40.943Z,97225.22
2022-09-14T07:34:08.712Z,97240.78
2022-09-14T07:36:36.763Z,97236.50
2022-09-14T07:39:10.125Z,97223.78
2022-09-14T07:41:37.398Z,97232.38
2022-09-14T07:44:07.540Z,97213.19
2022-09-14T07:46:42.291Z,97231.44
2022-09-14T07:49:10.689Z,97227.31
2022-09-14T07:51:38.526Z,97219.22
2022-09-14T07:54:08.021Z,97243.22
2022-09-14T07:56:35.291Z,97248.28
2022-09-14T07:59:24.191Z,97247.69
2022-09-14T08:01:50.341Z,97237.44
2022-09-14T08:04:17.728Z,97223.44
2022-09-14T08:06:45.307Z,97250.94
2022-09-14T08:09:12.303Z,97233.56
2022-09-14T08:11:39.352Z,97229.31
2022-09-14T08:14:10.505Z,97246.41
2022-09-14T08:16:41.457Z,97246.38
2022-09-14T08:19:16.987Z,97267.06
2022-09-14T08:21:47.222Z,97263.06
2022-09-14T08:24:18.692Z,97276.81
2022-09-14T08:26:46.529Z,97269.91
2022-09-14T08:29:15.300Z,97282.81
2022-09-14T08:31:44.224Z,97281.06
2022-09-14T08:34:11.799Z,97293.41
2022-09-14T08:36:41.180Z,97279.31
2022-09-14T08:39:11.137Z,97281.00
2022-09-14T08:41:44.856Z,97282.75
2022-09-14T08:44:11.652Z,97265.81
2022-09-14T08:47:01.064Z,97290.88
2022-09-14T08:49:43.084Z,97280.84
2022-09-14T08:52:23.125Z,97308.06
2022-09-14T08:54:57.574Z,97295.16
2022-09-14T08:58:02.404Z,97324.22
2022-09-14T09:00:51.334Z,97344.44
2022-09-14T09:04:11.206Z,97335.59
2022-09-14T09:07:17.704Z,97330.03
2022-09-14T09:09:48.170Z,97301.00
2022-09-14T09:12:45.823Z,97325.81
2022-09-14T09:15:27.658Z,97292.31
2022-09-14T09:18:09.131Z,97274.66
2022-09-14T09:20:47.245Z,97268.50
2022-09-14T09:23:19.241Z,97291.72
2022-09-14T09:26:10.856Z,97280.44
2022-09-14T09:28:49.436Z,97294.94
2022-09-14T09:31:19.796Z,97292.88
2022-09-14T09:34:07.273Z,97285.53
2022-09-14T09:36:39.402Z,97277.81
2022-09-14T09:39:06.970Z,97286.97
2022-09-14T09:41:51.315Z,97287.34
2022-09-14T09:44:18.339Z,97269.78
2022-09-14T09:46:47.371Z,97263.19
2022-09-14T09:49:33.498Z,97261.91
2022-09-14T09:52:14.637Z,97244.44
2022-09-14T09:54:52.083Z,97247.03
2022-09-14T09:57:31.035Z,97252.28
2022-09-14T10:00:26.333Z,97243.47
2022-09-14T10:02:54.725Z,97248.09
2022-09-14T10:05:29.066Z,97243.88
2022-09-14T10:08:09.323Z,97229.19
2022-09-14T10:10:39.156Z,97230.75
2022-09-14T10:13:38.380Z,97219.03
2022-09-14T10:16:18.131Z,97219.41
2022-09-14T10:18:52.021Z,97209.09
2022-09-14T10:21:25.800Z,97204.41
2022-09-14T10:24:17.137Z,97212.16
2022-09-14T10:26:44.061Z,97187.84
2022-09-14T10:29:31.853Z,97199.78
2022-09-14T10:32:17.727Z,97188.59
2022-09-14T10:34:45.625Z,97191.97
2022-09-14T10:38:07.916Z,97198.69
2022-09-14T10:40:40.527Z,97197.75
2022-09-14T10:43:17.061Z,97194.47
2022-09-14T10:46:00.551Z,97181.66
2022-09-14T10:48:54.565Z,97181.91
2022-09-14T10:51:29.479Z,97162.84
2022-09-14T10:54:32.761Z,97162.91
2022-09-14T10:57:16.607Z,97166.56
2022-09-14T11:00:12.928Z,97157.03
2022-09-14T11:02:48.335Z,97148.44
2022-09-14T11:05:30.995Z,97154.69
2022-09-14T11:08:11.858Z,97135.50
2022-09-14T11:11:10.673Z,97136.19
2022-09-14T11:14:22.218Z,97139.41
2022-09-14T11:17:26.890Z,97130.63
2022-09-14T11:20:15.484Z,97130.09
2022-09-14T11:23:04.636Z,97141.59
2022-09-14T11:25:45.556Z,97129.63
2022-09-14T11:28:20.383Z,97130.91
2022-09-14T11:31:00.182Z,97125.59
2022-09-14T11:33:38.138Z,97133.88
2022-09-14T11:36:23.314Z,97108.41
2022-09-14T11:38:57.907Z,97102.47
2022-09-14T11:41:41.644Z,97100.38
2022-09-14T11:44:21.113Z,97094.81
2022-09-14T11:47:13.043Z,97097.03
2022-09-14T11:50:25.440Z,97107.50
2022-09-14T11:53:11.875Z,97102.69
2022-09-14T11:55:45.632Z,97100.84
2022-09-14T11:58:26.643Z,97097.22
2022-09-14T12:01:36.901Z,97109.50
2022-09-14T12:04:17.621Z,97096.31
2022-09-14T12:06:49.593Z,97099.41
2022-09-14T12:09:20.955Z,97101.53
2022-09-14T12:12:00.770Z,97105.88
2022-09-14T12:14:40.214Z,97115.53
2022-09-14T12:17:38.837Z,97112.66
2022-09-14T12:20:52.630Z,97115.81
2022-09-14T12:23:37.762Z,97107.44
2022-09-14T12:26:10.704Z,97108.22
2022-09-14T12:28:37.687Z,97112.34
2022-09-14T12:31:05.626Z,97109.31
2022-09-14T12:33:32.703Z,97097.84
2022-09-14T12:36:28.714Z,97097.47
2022-09-14T12:38:55.473Z,97109.09
2022-09-14T12:41:22.306Z,97111.22
2022-09-14T12:43:49.257Z,97112.47
2022-09-14T12:46:22.470Z,97098.16
2022-09-14T12:48:49.541Z,97107.44
2022-09-14T12:51:31.566Z,97099.72
2022-09-14T12:54:08.872Z,97104.38
2022-09-14T12:56:59.832Z,97109.25
2022-09-14T13:00:11.523Z,97111.84
2022-09-14T13:03:21.211Z,97092.25
2022-09-14T13:05:48.201Z,97113.94
2022-09-14T13:08:23.639Z,97094.63
2022-09-14T13:10:52.548Z,97114.34
2022-09-14T13:13:25.885Z,97124.69
2022-09-14T13:15:59.301Z,97136.31
2022-09-14T13:18:37.841Z,97150.78
2022-09-14T13:21:21.129Z,97163.63
2022-09-14T13:23:48.906Z,97168.66
2022-09-14T13:26:26.120Z,97161.25
2022-09-14T13:28:55.319Z,97179.63
2022-09-14T13:31:36.057Z,97172.13
2022-09-14T13:34:05.337Z,97193.84
2022-09-14T13:36:37.198Z,97201.19
2022-09-14T13:39:04.623Z,97210.53
2022-09-14T13:41:32.329Z,97220.44
2022-09-14T13:44:00.460Z,97230.94
2022-09-14T13:46:28.517Z,97238.69
2022-09-14T13:48:56.086Z,97237.63
2022-09-14T13:51:27.831Z,97236.81
2022-09-14T13:54:16.903Z,97230.72
2022-09-14T13:56:43.829Z,97254.84
2022-09-14T13:59:15.497Z,97242.97
2022-09-14T14:01:58.133Z,97240.44
2022-09-14T14:04:48.431Z,97228.03
2022-09-14T14:07:22.767Z,97224.81
2022-09-14T14:09:56.892Z,97201.34
2022-09-14T14:12:39.726Z,97207.53
2022-09-14T14:15:26.769Z,97182.72
2022-09-14T14:17:54.743Z,97171.44
2022-09-14T14:20:24.583Z,97168.75
2022-09-14T14:23:10.510Z,97177.53
2022-09-14T14:25:49.089Z,97164.63
2022-09-14T14:28:34.843Z,97165.50
2022-09-14T14:31:07.705Z,97160.78
2022-09-14T14:33:36.976Z,97153.91
2022-09-14T14:36:09.780Z,97152.41
2022-09-14T14:38:36.968Z,97157.81
2022-09-14T14:41:04.749Z,97178.88
2022-09-14T14:43:32.395Z,97168.47
2022-09-14T14:46:01.627Z,97169.06
2022-09-14T14:48:29.565Z,97181.91
2022-09-14T14:50:56.784Z,97197.50
2022-09-14T14:53:25.706Z,97187.69
2022-09-14T14:55:53.293Z,97190.84
2022-09-14T14:58:22.120Z,97201.84
2022-09-14T15:00:49.604Z,97202.69
2022-09-14T15:03:18.997Z,97208.84
2022-09-14T15:05:48.094Z,97222.03
2022-09-14T15:08:20.035Z,97216.50
2022-09-14T15:10:48.992Z,97220.63
2022-09-14T15:13:15.871Z,97202.59
2022-09-14T15:15:43.100Z,97199.81
2022-09-14T15:18:10.430Z,97194.16
2022-09-14T15:20:37.929Z,97182.16
2022-09-14T15:23:06.121Z,97195.94
2022-09-14T15:25:33.450Z,97185.22
2022-09-14T15:28:00.955Z,97186.59
2022-09-14T15:30:27.932Z,97185.78
2022-09-14T15:32:55.020Z,97181.84
2022-09-14T15:35:21.948Z,97170.56
2022-09-14T15:37:48.852Z,97175.34
2022-09-14T15:40:16.275Z,97152.19
2022-09-14T15:42:43.236Z,97159.72
2022-09-14T15:45:10.858Z,97149.41
2022-09-14T15:47:37.855Z,97130.91
2022-09-14T15:50:06.160Z,97115.34
2022-09-14T15:52:38.894Z,97116.16
2022-09-14T15:55:08.885Z,97095.31
2022-09-14T15:57:36.972Z,97078.06
2022-09-14T16:00:10.941Z,97061.81
2022-09-14T16:02:41.446Z,97069.22
2022-09-14T16:05:09.055Z,97071.84
2022-09-14T16:07:35.988Z,97108.47
2022-09-14T16:10:03.023Z,97092.63
2022-09-14T16:12:30.218Z,97119.13
2022-09-14T16:14:57.179Z,97096.66
2022-09-14T16:17:24.125Z,97093.94
2022-09-14T16:19:51.667Z,97101.06
2022-09-14T16:22:19.172Z,97089.75
2022-09-14T16:24:46.071Z,97075.59
2022-09-14T16:27:12.998Z,97074.59
2022-09-14T16:29:40.627Z,97068.31
2022-09-14T16:32:07.828Z,97077.19
2022-09-14T16:34:36.461Z,97099.03
2022-09-14T16:37:04.304Z,97103.25
2022-09-14T16:39:31.658Z,97129.50
2022-09-14T16:41:59.914Z,97110.47
2022-09-14T16:44:28.327Z,97139.31
2022-09-14T16:46:58.261Z,97145.56
2022-09-14T16:49:28.110Z,97136.06
2022-09-14T16:51:56.668Z,97133.19
2022-09-14T16:54:25.687Z,97138.72
2022-09-14T16:56:56.959Z,97126.72
2022-09-14T16:59:24.764Z,97133.97
2022-09-14T17:01:54.530Z,97144.69
2022-09-14T17:04:23.711Z,97144.88
2022-09-14T17:06:52.109Z,97132.19
2022-09-14T17:09:30.017Z,97142.47
2022-09-14T17:11:58.298Z,97127.28
2022-09-14T17:14:32.994Z,97130.63
2022-09-14T17:17:00.678Z,97121.31
2022-09-14T17:19:28.478Z,97122.81
2022-09-14T17:21:55.574Z,97112.94
2022-09-14T17:24:22.882Z,97121.31
2022-09-14T17:26:50.089Z,97128.53
2022-09-14T17:29:17.779Z,97121.59
2022-09-14T17:31:45.434Z,97120.25
2022-09-14T17:34:16.545Z,97125.47
2022-09-14T17:36:44.072Z,97118.44
2022-09-14T17:39:12.401Z,97129.16
2022-09-14T17:41:41.078Z,97138.94
2022-09-14T17:44:12.388Z,97140.38
2022-09-14T17:46:48.111Z,97131.25
2022-09-14T17:49:18.054Z,97138.69
2022-09-14T17:51:45.356Z,97125.09
2022-09-14T17:54:12.805Z,97130.50
2022-09-14T17:56:39.873Z,97136.00
2022-09-14T17:59:12.710Z,97125.94
2022-09-14T18:01:40.240Z,97130.97
2022-09-14T18:04:12.414Z,97129.94
2022-09-14T18:06:44.290Z,97132.97
2022-09-14T18:09:19.012Z,97141.75
2022-09-14T18:11:47.009Z,97142.13
2022-09-14T18:14:14.921Z,97142.13
2022-09-14T18:16:43.171Z,97119.88
2022-09-14T18:19:10.517Z,97126.72
2022-09-14T18:21:37.781Z,97137.59
2022-09-14T18:24:05.281Z,97136.31
2022-09-14T18:26:32.404Z,97145.59
2022-09-14T18:28:59.433Z,97151.13
2022-09-14T18:31:27.209Z,97154.47
2022-09-14T18:33:59.009Z,97162.78
2022-09-14T18:36:29.065Z,97151.78
2022-09-14T18:38:57.818Z,97142.06
2022-09-14T18:41:24.850Z,97141.44
2022-09-14T18:43:53.299Z,97142.13
2022-09-14T18:46:23.418Z,97151.94
2022-09-14T18:48:57.083Z,97149.69
2022-09-14T18:51:24.563Z,97144.00
2022-09-14T18:53:57.819Z,97162.13
2022-09-14T18:56:24.999Z,97150.34
2022-09-14T18:58:52.076Z,97151.88
2022-09-14T19:01:19.456Z,97152.38
2022-09-14T19:03:46.437Z,97153.13
2022-09-14T19:06:16.206Z,97162.59
2022-09-14T19:08:44.195Z,97158.22
2022-09-14T19:11:17.786Z,97149.97
2022-09-14T19:13:46.052Z,97148.28
2022-09-14T19:16:18.780Z,97140.50
2022-09-14T19:18:49.503Z,97143.28
2022-09-14T19:21:24.027Z,97151.75
2022-09-14T19:24:07.121Z,97155.34
2022-09-14T19:26:44.568Z,97156.66
2022-09-14T19:29:20.205Z,97148.13
2022-09-14T19:31:51.399Z,97126.94
2022-09-14T19:34:20.432Z,97136.22
2022-09-14T19:36:48.026Z,97138.81
2022-09-14T19:39:15.286Z,97131.47
2022-09-14T19:41:42.548Z,97138.16
2022-09-14T19:44:11.395Z,97137.75
2022-09-14T19:46:39.827Z,97153.53
2022-09-14T19:49:36.413Z,97142.91
2022-09-14T19:52:03.682Z,97150.34
2022-09-14T19:54:30.727Z,97158.91
2022-09-14T19:56:57.677Z,97154.56
2022-09-14T19:59:25.016Z,97161.94
2022-09-14T20:01:52.387Z,97153.22
2022-09-14T20:04:19.719Z,97156.00
2022-09-14T20:06:47.661Z,97159.25
2022-09-14T20:09:23.340Z,97170.22
2022-09-14T20:11:52.533Z,97165.78
2022-09-14T20:14:23.648Z,97174.66
2022-09-14T20:16:54.568Z,97173.47
2022-09-14T20:19:25.893Z,97180.19
2022-09-14T20:21:53.827Z,97190.13
2022-09-14T20:24:26.375Z,97194.50
2022-09-14T20:26:59.615Z,97202.44
2022-09-14T20:29:30.459Z,97196.78
2022-09-14T20:31:58.698Z,97192.78
2022-09-14T20:34:26.537Z,97194.28
2022-09-14T20:36:54.919Z,97191.81
2022-09-14T20:39:23.696Z,97191.72
2022-09-14T20:41:50.668Z,97187.25
2022-09-14T20:44:22.132Z,97192.56
2022-09-14T20:46:49.784Z,97190.31
2022-09-14T20:49:22.020Z,97187.91
2022-09-14T20:51:49.134Z,97189.88
2022-09-14T20:54:17.989Z,97195.00
2022-09-14T20:56:46.258Z,97193.59
2022-09-14T20:59:16.491Z,97204.75
2022-09-14T21:01:46.469Z,97202.56
2022-09-14T21:04:22.538Z,97200.50
2022-09-14T21:06:55.156Z,97193.34
2022-09-14T21:09:25.008Z,97198.53
2022-09-14T21:11:52.798Z,97192.31
2022-09-14T21:14:21.041Z,97197.13
2022-09-14T21:16:52.668Z,97195.69
2022-09-14T21:19:27.855Z,97199.97
2022-09-14T21:21:55.637Z,97203.59
2022-09-14T21:24:23.784Z,97180.03
2022-09-14T21:26:51.106Z,97172.28
2022-09-14T21:29:23.330Z,97167.81
2022-09-14T21:31:50.862Z,97169.72
2022-09-14T21:34:18.307Z,97177.53
2022-09-14T21:36:49.133Z,97169.59
2022-09-14T21:39:21.585Z,97163.91
2022-09-14T21:41:51.432Z,97170.22
2022-09-14T21:44:21.561Z,97176.47
2022-09-14T21:46:48.614Z,97165.78
2022-09-14T21:49:21.819Z,97160.53
2022-09-14T21:51:49.690Z,97165.94
2022-09-14T21:54:16.967Z,97161.41
2022-09-14T21:56:46.274Z,97166.66
2022-09-14T21:59:19.834Z,97164.34
2022-09-14T22:01:47.919Z,97169.44
2022-09-14T22:04:20.647Z,97149.53
2022-09-14T22:06:48.077Z,97146.75
2022-09-14T22:09:17.189Z,97144.88
2022-09-14T22:11:44.336Z,97152.66
2022-09-14T22:14:14.728Z,97162.03
2022-09-14T22:16:42.088Z,97165.84
2022-09-14T22:19:17.248Z,97168.84
2022-09-14T22:21:44.921Z,97180.13
2022-09-14T22:24:17.267Z,97170.16
2022-09-14T22:26:45.152Z,97153.09
2022-09-14T22:29:13.531Z,97164.31
2022-09-14T22:31:42.512Z,97175.91
2022-09-14T22:34:09.767Z,97181.53
2022-09-14T22:36:37.365Z,97173.09
2022-09-14T22:39:05.359Z,97183.31
2022-09-14T22:41:32.594Z,97200.91
2022-09-14T22:43:59.508Z,97201.41
2022-09-14T22:46:26.588Z,97195.00
2022-09-14T22:48:53.734Z,97190.38
2022-09-14T22:51:24.956Z,97188.06
2022-09-14T22:53:52.759Z,97188.72
2022-09-14T22:56:27.931Z,97194.63
2022-09-14T22:58:55.480Z,97186.38
2022-09-14T23:01:30.428Z,97192.91
2022-09-14T23:04:01.330Z,97201.16
2022-09-14T23:06:35.472Z,97207.13
2022-09-14T23:09:02.847Z,97201.81
2022-09-14T23:11:29.927Z,97203.09
2022-09-14T23:13:59.001Z,97192.78
2022-09-14T23:16:29.330Z,97188.22
2022-09-14T23:19:04.414Z,97187.16
2022-09-14T23:21:31.833Z,97184.41
2022-09-14T23:24:03.987Z,97187.09
2022-09-14T23:26:31.464Z,97183.84
2022-09-14T23:29:01.901Z,97186.28
2022-09-14T23:31:30.766Z,97208.38
2022-09-14T23:34:00.269Z,97227.66
2022-09-14T23:36:27.581Z,97213.97
2022-09-14T23:38:54.648Z,97210.97
2022-09-14T23:41:24.084Z,97207.28
2022-09-14T23:43:51.770Z,97209.84
2022-09-14T23:46:19.380Z,97209.78
2022-09-14T23:48:46.949Z,97215.47
2022-09-14T23:51:14.107Z,97215.25
2022-09-14T23:53:42.675Z,97227.72
2022-09-14T23:56:10.527Z,97236.28
2022-09-14T23:58:38.205Z,97229.66
